Main page
METAR-TAF:

METAR-TAF

Airports :

Oil platform

P11-b, Netherlands

latitude: 52-21-36N, longitude: 3-20-30E, elevation: 24 m

Current weather observation

The report was made 37 minutes ago, at 04:25 UTC
Wind 29 kt from the West/Southwest, varying between West/Southwest and Northwest
Temperature 14°C
Humidity 63%
Pressure 998 hPa
Visibility 10 km or more
Scattered clouds at a height of 2400 ft

METAR: EHPG 240425Z AUTO 25029KT 240V310 9999 SCT024 14/07 Q0998

Time: 07:02 (05:02 UTC)


TAF: missing

Weather observations and forecasts of more than 4000 airports (METAR and TAF reports).

The available stations are represented by yellow and red dots on the map.

Hover mouse over dot to see the name of the station.

Then click to see weather observations and forecasts.

To change the map : click on the green buttons with a black cross to zoom in, on the green button with a dash to zoom out, or on the green arrows for adjacent maps.


METAR-TAF: